Observations for ALGHERO, Italy (LIEA)

LIEA 181450Z 18004KT 100V240 CAVOK 23/11 Q1017  
LIEA 181420Z VRB04KT CAVOK 24/10 Q1017  
LIEA 181350Z VRB05KT CAVOK 23/10 Q1017  
LIEA 181320Z 15003KT 060V210 CAVOK 23/11 Q1017  
LIEA 181250Z 18007KT 140V220 CAVOK 23/11 Q1017  
LIEA 181220Z VRB06KT CAVOK 23/10 Q1017  
LIEA 181150Z 08008KT 040V110 CAVOK 22/09 Q1017  
LIEA 181120Z 10007KT 060V140 CAVOK 22/10 Q1018  
LIEA 181050Z 09009KT CAVOK 21/10 Q1018  
LIEA 181020Z 10009KT 050V130 CAVOK 21/09 Q1018  
LIEA 180950Z 08009KT 040V110 CAVOK 20/10 Q1018  
LIEA 180920Z 08008KT 040V120 CAVOK 20/09 Q1019  
LIEA 180850Z 07007KT 040V100 CAVOK 19/09 Q1019  
LIEA 180820Z 07007KT CAVOK 18/09 Q1019  
LIEA 180750Z 07007KT CAVOK 17/10 Q1019  
LIEA 180720Z 04007KT CAVOK 15/10 Q1019  
LIEA 180650Z 04006KT CAVOK 14/11 Q1019  
LIEA 180620Z 05008KT CAVOK 13/10 Q1018  
LIEA 180550Z 02006KT CAVOK 12/10 Q1018  
LIEA 180520Z 03005KT CAVOK 11/09 Q1018  
LIEA 180450Z 03006KT CAVOK 11/09 Q1018  
LIEA 180420Z 04006KT CAVOK 11/09 Q1018  
LIEA 180350Z 04008KT CAVOK 11/10 Q1018  
LIEA 180320Z 03006KT CAVOK 10/09 Q1018  
LIEA 180250Z 02006KT CAVOK 10/10 Q1018  
LIEA 180220Z 01004KT CAVOK 10/09 Q1019  
LIEA 180150Z 32002KT CAVOK 09/09 Q1019  
LIEA 180120Z 04004KT CAVOK 10/09 Q1019  
LIEA 180050Z VRB02KT CAVOK 10/10 Q1019  
LIEA 180020Z VRB02KT CAVOK 09/09 Q1019  
LIEA 172350Z 04004KT CAVOK 10/09 Q1020  
LIEA 172250Z 06002KT CAVOK 11/11 Q1020  
LIEA 172220Z VRB01KT CAVOK 11/11 Q1020  
LIEA 172150Z 04003KT CAVOK 11/11 Q1020  
LIEA 172120Z 05002KT CAVOK 12/11 Q1020  
LIEA 172050Z VRB01KT CAVOK 12/10 Q1019  
LIEA 172020Z 09003KT 050V110 CAVOK 12/11 Q1019  
LIEA 171950Z 07005KT CAVOK 13/11 Q1019  
LIEA 171920Z 02006KT CAVOK 14/12 Q1019  
LIEA 171850Z 02005KT CAVOK 14/10 Q1019  
LIEA 171820Z 02004KT CAVOK 16/08 Q1018  
LIEA 171750Z 04006KT CAVOK 17/09 Q1018  
LIEA 171720Z 02006KT CAVOK 18/09 Q1018  
LIEA 171650Z 03007KT 360V060 CAVOK 18/10 Q1019  
LIEA 171620Z 03007KT 360V070 CAVOK 19/09 Q1019  
LIEA 171550Z 03008KT CAVOK 19/10 Q1018  
LIEA 171520Z 04008KT 010V070 CAVOK 19/10 Q1018  
LIEA 171450Z 04006KT 350V080 CAVOK 20/10 Q1019  
LIEA 171420Z 29006KT 250V340 9999 FEW040 20/11 Q1019